Time;durP1;ratioP1;P1;durP2;ratioP2;P2;SDS_P1;SDS_P2;PMS_P1;PMS_P2;Temp;Humidity;BMP_temperature;BMP_pressure;BME280_temperature;BME280_humidity;BME280_pressure;Samples;Min_cycle;Max_cycle;Signal;HPM_P1;HPM_P2
2021/07/09 00:01:10;;;;;;;5.20;4.32;;;;;;;22.61;49.69;102307.00;5013630;28;20049;-85
2021/07/09 00:03:36;;;;;;;5.57;4.50;;;;;;;22.63;49.61;102307.00;4996411;28;20030;-85
2021/07/09 00:06:02;;;;;;;5.18;4.40;;;;;;;22.62;49.88;102303.50;4996519;28;20080;-84
2021/07/09 00:08:27;;;;;;;5.20;4.32;;;;;;;22.62;49.57;102305.25;5016831;28;20127;-84
2021/07/09 00:10:53;;;;;;;5.28;4.72;;;;;;;22.62;49.93;102300.00;5005894;28;20427;-85
2021/07/09 00:13:18;;;;;;;5.13;4.30;;;;;;;22.61;49.87;102295.66;5013260;28;20025;-84
2021/07/09 00:15:44;;;;;;;5.38;4.88;;;;;;;22.61;49.70;102296.53;4980235;28;20496;-85
2021/07/09 00:18:09;;;;;;;5.43;4.30;;;;;;;22.60;49.94;102300.00;4996627;28;20026;-85
2021/07/09 00:20:34;;;;;;;5.22;4.63;;;;;;;22.59;49.67;102293.03;4996573;28;20033;-85
2021/07/09 00:23:00;;;;;;;5.10;4.50;;;;;;;22.59;50.01;102298.28;5012758;28;20074;-84
2021/07/09 00:25:26;;;;;;;5.65;4.97;;;;;;;22.59;49.80;102300.91;5013023;28;20068;-85
2021/07/09 00:27:51;;;;;;;4.97;4.55;;;;;;;22.59;49.78;102296.53;4996451;28;20110;-84
2021/07/09 00:30:17;;;;;;;5.28;4.53;;;;;;;22.59;49.77;102288.66;4996322;28;20395;-82
2021/07/09 00:32:45;;;;;;;5.32;4.80;;;;;;;22.59;49.66;102287.78;5012733;28;20030;-84
2021/07/09 00:35:11;;;;;;;7.50;4.82;;;;;;;22.57;49.58;102285.16;5013869;28;20461;-83
2021/07/09 00:37:36;;;;;;;5.32;4.82;;;;;;;22.58;49.89;102286.03;5012878;28;20037;-82
2021/07/09 00:40:05;;;;;;;5.38;4.35;;;;;;;22.57;49.92;102284.31;4997749;28;20029;-83
2021/07/09 00:42:30;;;;;;;5.47;4.88;;;;;;;22.57;49.65;102282.53;4997658;28;20392;-83
2021/07/09 00:44:55;;;;;;;6.00;4.53;;;;;;;22.56;49.86;102286.06;5013753;28;20064;-84
2021/07/09 00:47:22;;;;;;;5.25;4.70;;;;;;;22.57;49.65;102284.31;4996978;28;20531;-83
2021/07/09 00:49:49;;;;;;;5.13;4.60;;;;;;;22.57;49.68;102279.06;5024417;28;20022;-83
2021/07/09 00:52:15;;;;;;;7.55;4.80;;;;;;;22.56;49.96;102279.97;5001474;28;20384;-80
2021/07/09 00:54:41;;;;;;;6.82;4.95;;;;;;;22.55;50.00;102281.69;5018147;28;20053;-79
2021/07/09 00:57:10;;;;;;;5.28;4.72;;;;;;;22.56;49.80;102288.69;5016474;28;20115;-79
2021/07/09 00:59:36;;;;;;;5.95;4.85;;;;;;;22.56;49.63;102283.44;5001053;28;20087;-80
2021/07/09 01:02:02;;;;;;;5.10;4.55;;;;;;;22.56;49.90;102285.19;5016321;28;20061;-78
2021/07/09 01:04:27;;;;;;;5.43;4.88;;;;;;;22.55;49.91;102272.94;4999686;28;20080;-78
2021/07/09 01:06:53;;;;;;;5.15;4.63;;;;;;;22.55;49.72;102279.06;5016258;28;20029;-80
2021/07/09 01:09:18;;;;;;;7.10;4.95;;;;;;;22.55;50.00;102273.81;5017227;28;20423;-80
2021/07/09 01:11:45;;;;;;;5.28;4.50;;;;;;;22.55;49.91;102270.31;4999813;28;20064;-79
2021/07/09 01:14:10;;;;;;;5.60;4.75;;;;;;;22.55;49.64;102272.94;5016125;28;20029;-79
2021/07/09 01:16:36;;;;;;;5.72;4.45;;;;;;;22.54;49.71;102281.72;5032838;28;20483;-79
2021/07/09 01:19:05;;;;;;;5.55;5.00;;;;;;;22.54;49.63;102279.09;4986841;28;20166;-79
2021/07/09 01:21:31;;;;;;;5.57;4.93;;;;;;;22.54;49.75;102282.56;5036843;28;20022;-80
2021/07/09 01:24:04;;;;;;;5.10;4.60;;;;;;;22.54;49.69;102284.34;5036643;28;20060;-79
2021/07/09 01:26:30;;;;;;;6.18;5.00;;;;;;;22.53;49.74;102283.44;5019111;28;20076;-80
2021/07/09 01:28:55;;;;;;;5.95;5.05;;;;;;;22.54;49.73;102284.34;5020356;28;20029;-81
2021/07/09 01:31:21;;;;;;;5.20;4.70;;;;;;;22.54;49.63;102289.59;5004438;28;20120;-80
2021/07/09 01:33:47;;;;;;;5.65;5.10;;;;;;;22.52;49.68;102286.97;5002384;28;20032;-78
2021/07/09 01:36:13;;;;;;;4.75;4.30;;;;;;;22.50;49.69;102283.47;5002263;28;20060;-78
2021/07/09 01:38:38;;;;;;;5.57;4.70;;;;;;;22.51;49.69;102281.72;4986242;28;20036;-77
2021/07/09 01:41:03;;;;;;;5.32;4.60;;;;;;;22.52;49.47;102279.09;5018667;28;20063;-78
2021/07/09 01:43:30;;;;;;;6.05;4.57;;;;;;;22.52;49.47;102276.47;5002105;28;20061;-77
2021/07/09 01:45:56;;;;;;;6.40;4.30;;;;;;;22.51;49.85;102279.97;5002256;28;20067;-78
2021/07/09 01:48:21;;;;;;;5.45;4.50;;;;;;;22.50;49.78;102278.22;5002023;28;20041;-77
2021/07/09 01:50:47;;;;;;;5.57;4.80;;;;;;;22.51;49.68;102286.97;5018443;28;20074;-77
2021/07/09 01:53:13;;;;;;;6.53;4.85;;;;;;;22.51;49.57;102285.19;5018314;28;20103;-77
2021/07/09 01:55:38;;;;;;;5.65;5.05;;;;;;;22.49;49.79;102279.09;5036115;28;20052;-79
2021/07/09 01:58:04;;;;;;;6.07;4.70;;;;;;;22.49;49.76;102273.84;5018185;28;20187;-77
2021/07/09 02:00:30;;;;;;;6.35;4.82;;;;;;;22.49;49.58;102273.00;5018499;28;20030;-77
2021/07/09 02:02:55;;;;;;;5.20;4.70;;;;;;;22.49;49.69;102276.47;5001723;28;20025;-77
2021/07/09 02:05:23;;;;;;;5.20;4.70;;;;;;;22.50;49.46;102274.75;5035842;28;20076;-77
2021/07/09 02:07:54;;;;;;;5.55;5.05;;;;;;;22.49;49.56;102279.09;5017879;28;20043;-78
2021/07/09 02:10:21;;;;;;;5.13;4.63;;;;;;;22.48;49.88;102274.75;5036675;28;20053;-78
2021/07/09 02:12:50;;;;;;;5.00;4.50;;;;;;;22.47;49.61;102264.25;5001624;28;20502;-78
2021/07/09 02:15:16;;;;;;;5.25;4.75;;;;;;;22.47;49.78;102266.88;5018009;28;20067;-80
2021/07/09 02:17:43;;;;;;;5.07;4.57;;;;;;;22.46;49.53;102268.66;5036129;28;20025;-78
2021/07/09 02:20:12;;;;;;;5.53;4.75;;;;;;;22.46;49.45;102266.03;5001530;28;20375;-78
2021/07/09 02:22:38;;;;;;;5.65;5.05;;;;;;;22.45;49.58;102261.66;5017553;28;20029;-78
2021/07/09 02:25:07;;;;;;;6.07;5.25;;;;;;;22.45;49.43;102266.91;5001675;28;20029;-78
2021/07/09 02:27:37;;;;;;;7.18;5.05;;;;;;;22.45;49.25;102261.66;5017858;28;20087;-78
2021/07/09 02:30:08;;;;;;;6.18;5.43;;;;;;;22.45;49.75;102263.41;5001360;28;20030;-77
2021/07/09 02:32:34;;;;;;;5.85;5.05;;;;;;;22.44;49.45;102267.78;5017603;28;20018;-77
2021/07/09 02:35:00;;;;;;;5.40;4.90;;;;;;;22.45;49.51;102260.78;5035289;28;20018;-77
2021/07/09 02:37:25;;;;;;;6.63;5.40;;;;;;;22.44;49.18;102259.03;5001017;28;20030;-78
2021/07/09 02:39:51;;;;;;;5.25;4.75;;;;;;;22.43;49.63;102259.91;5001170;28;20079;-77
2021/07/09 02:42:16;;;;;;;7.45;5.20;;;;;;;22.43;49.74;102267.78;5017247;28;20112;-78
2021/07/09 02:44:42;;;;;;;4.93;4.43;;;;;;;22.43;49.37;102273.94;5017408;28;20022;-77
2021/07/09 02:47:07;;;;;;;5.45;4.88;;;;;;;22.43;49.59;102266.06;5035088;28;20398;-77
2021/07/09 02:49:33;;;;;;;5.38;4.88;;;;;;;22.43;49.31;102265.16;5001598;28;20033;-77
2021/07/09 02:51:58;;;;;;;5.38;4.85;;;;;;;22.43;49.69;102267.78;5001051;28;20462;-77
2021/07/09 02:54:24;;;;;;;5.40;4.85;;;;;;;22.42;49.35;102263.44;5001008;28;20055;-77
2021/07/09 02:56:49;;;;;;;5.30;4.80;;;;;;;22.43;49.56;102265.16;4984535;28;20036;-78
2021/07/09 02:59:15;;;;;;;5.53;4.93;;;;;;;22.43;49.45;102267.78;5001014;28;20115;-77
2021/07/09 03:01:41;;;;;;;5.40;4.90;;;;;;;22.41;49.33;102261.66;5000666;28;20042;-77
2021/07/09 03:04:13;;;;;;;5.70;5.20;;;;;;;22.42;49.42;102260.81;5017127;28;20105;-78
2021/07/09 03:06:39;;;;;;;5.35;4.88;;;;;;;22.42;49.39;102260.81;5017137;28;20030;-78
2021/07/09 03:09:09;;;;;;;5.88;4.80;;;;;;;22.39;49.58;102257.31;5000520;28;20114;-77
2021/07/09 03:11:37;;;;;;;5.70;4.72;;;;;;;22.41;49.38;102259.06;5032982;28;20037;-78
2021/07/09 03:14:03;;;;;;;5.35;4.85;;;;;;;22.40;49.60;102258.19;5034584;28;20349;-77
2021/07/09 03:16:29;;;;;;;5.63;5.13;;;;;;;22.39;49.32;102259.94;5016564;28;20068;-78
2021/07/09 03:18:54;;;;;;;5.30;4.80;;;;;;;22.39;49.39;102262.56;5016759;28;20029;-77
2021/07/09 03:21:20;;;;;;;5.43;4.88;;;;;;;22.41;49.47;102269.53;5034297;28;20480;-78
2021/07/09 03:23:45;;;;;;;6.15;5.32;;;;;;;22.39;49.34;102259.94;5016805;28;20117;-77
2021/07/09 03:26:10;;;;;;;5.35;4.85;;;;;;;22.41;49.53;102259.06;4984082;28;20025;-78
2021/07/09 03:28:36;;;;;;;5.38;4.88;;;;;;;22.39;49.34;102259.94;5034454;28;20104;-78
2021/07/09 03:31:01;;;;;;;5.32;4.82;;;;;;;22.39;49.28;102253.84;5000433;28;20060;-78
2021/07/09 03:33:26;;;;;;;5.30;4.80;;;;;;;22.38;49.50;102252.09;5000174;28;20021;-79
2021/07/09 03:35:52;;;;;;;7.00;5.03;;;;;;;22.38;49.34;102242.50;5016362;28;20052;-79
2021/07/09 03:38:21;;;;;;;5.03;4.53;;;;;;;22.37;49.38;102245.97;5016425;28;20037;-78
2021/07/09 03:40:47;;;;;;;5.78;5.28;;;;;;;22.37;49.56;102242.50;5034214;28;20471;-77
2021/07/09 03:43:13;;;;;;;8.18;5.15;;;;;;;22.37;49.53;102237.25;5016228;28;20025;-78
2021/07/09 03:45:38;;;;;;;5.47;4.97;;;;;;;22.37;49.24;102242.50;4999969;28;20098;-78
2021/07/09 03:48:05;;;;;;;5.20;4.70;;;;;;;22.37;49.49;102242.50;5033806;28;20475;-77
2021/07/09 03:50:31;;;;;;;5.53;4.97;;;;;;;22.36;49.48;102249.50;5016140;28;20476;-77
2021/07/09 03:52:56;;;;;;;5.72;5.10;;;;;;;22.36;49.24;102243.34;5016322;28;20128;-79
2021/07/09 03:55:22;;;;;;;5.47;4.97;;;;;;;22.37;49.42;102256.47;5000132;28;20044;-78
2021/07/09 03:57:47;;;;;;;5.93;5.22;;;;;;;22.36;49.50;102259.97;5016113;28;20040;-78
2021/07/09 04:00:14;;;;;;;5.78;5.13;;;;;;;22.36;49.33;102257.38;4999801;28;20036;-78
2021/07/09 04:02:41;;;;;;;5.72;5.10;;;;;;;22.36;49.25;102253.84;5033632;28;20032;-77
2021/07/09 04:05:07;;;;;;;5.68;5.03;;;;;;;22.36;49.29;102259.09;5015931;28;20112;-77
2021/07/09 04:07:33;;;;;;;5.55;5.00;;;;;;;22.36;49.05;102254.75;5016203;28;20206;-79
2021/07/09 04:09:58;;;;;;;6.50;5.10;;;;;;;22.39;49.06;102253.84;4999728;28;20539;-79
2021/07/09 04:12:24;;;;;;;6.53;4.63;;;;;;;22.42;49.20;102258.19;5000027;28;20033;-79
2021/07/09 04:14:49;;;;;;;5.07;4.57;;;;;;;22.44;49.19;102264.28;4983172;28;20033;-78
2021/07/09 04:17:15;;;;;;;4.80;4.30;;;;;;;22.44;49.36;102267.78;5015951;28;20037;-79
2021/07/09 04:19:40;;;;;;;5.30;4.60;;;;;;;22.43;49.15;102268.69;4999612;28;20025;-78
2021/07/09 04:22:06;;;;;;;5.40;4.40;;;;;;;22.45;49.24;102268.66;4999310;28;20487;-78
2021/07/09 04:24:32;;;;;;;4.65;4.25;;;;;;;22.45;49.14;102261.66;5015362;28;20040;-80
2021/07/09 04:26:58;;;;;;;4.45;4.05;;;;;;;22.46;49.43;102265.16;5015713;28;20021;-80
2021/07/09 04:29:23;;;;;;;4.18;3.75;;;;;;;22.46;49.23;102270.41;4983324;28;20036;-80
2021/07/09 04:31:49;;;;;;;4.47;4.07;;;;;;;22.44;49.36;102270.41;4999407;28;20053;-80
2021/07/09 04:34:14;;;;;;;4.57;3.88;;;;;;;22.46;49.16;102275.66;4999464;28;20357;-79
2021/07/09 04:36:41;;;;;;;4.50;4.10;;;;;;;22.46;49.38;102268.66;5015872;28;20128;-80
2021/07/09 04:39:07;;;;;;;4.70;4.10;;;;;;;22.47;49.39;102274.75;5033204;28;20040;-79
2021/07/09 04:41:33;;;;;;;4.60;4.20;;;;;;;22.46;49.44;102271.25;4999228;28;20026;-80
2021/07/09 04:43:58;;;;;;;4.68;4.18;;;;;;;22.46;49.53;102270.41;4983189;28;20379;-80
2021/07/09 04:46:24;;;;;;;4.85;3.80;;;;;;;22.46;49.23;102275.66;5015516;28;20044;-80
2021/07/09 04:48:49;;;;;;;4.85;4.07;;;;;;;22.47;49.38;102277.38;4982988;28;20491;-78
2021/07/09 04:51:14;;;;;;;4.43;3.85;;;;;;;22.47;49.16;102274.75;5016002;28;20380;-80
2021/07/09 04:53:40;;;;;;;4.68;4.20;;;;;;;22.47;49.48;102273.03;4999296;28;20022;-79
2021/07/09 04:56:05;;;;;;;4.03;3.63;;;;;;;22.46;49.42;102276.50;5015531;28;20442;-78
2021/07/09 04:58:31;;;;;;;4.60;4.10;;;;;;;22.44;49.63;102275.66;4998937;28;20033;-76
2021/07/09 05:00:56;;;;;;;6.00;4.95;;;;;;;22.38;49.45;102273.97;4999020;28;20037;-76
2021/07/09 05:03:21;;;;;;;5.28;4.82;;;;;;;22.31;49.94;102276.63;5015465;28;20383;-75
2021/07/09 05:05:47;;;;;;;6.25;5.45;;;;;;;22.32;49.89;102278.34;5015268;28;20033;-77
2021/07/09 05:08:12;;;;;;;8.15;6.22;;;;;;;22.37;49.59;102277.44;4998984;28;20025;-75
2021/07/09 05:10:38;;;;;;;10.88;5.88;;;;;;;22.43;49.76;102278.28;5015218;28;20554;-76
2021/07/09 05:13:05;;;;;;;9.75;6.10;;;;;;;22.35;50.08;102280.97;4982658;28;20030;-76
2021/07/09 05:15:32;;;;;;;17.13;8.43;;;;;;;22.31;50.05;102285.34;5015128;28;20045;-80
2021/07/09 05:17:57;;;;;;;12.43;6.82;;;;;;;22.34;50.42;102287.06;5015260;28;20026;-81
2021/07/09 05:20:23;;;;;;;11.98;8.90;;;;;;;22.27;50.42;102286.25;4998917;28;20472;-82
2021/07/09 05:22:48;;;;;;;12.65;9.50;;;;;;;22.16;50.33;102280.16;5015564;28;20475;-80
2021/07/09 05:25:14;;;;;;;13.93;10.35;;;;;;;22.08;50.61;102277.59;4998849;28;20033;-78
2021/07/09 05:27:39;;;;;;;12.98;10.60;;;;;;;22.03;50.57;102281.13;5015425;28;20454;-79
2021/07/09 05:30:06;;;;;;;12.50;10.00;;;;;;;22.00;50.67;102286.41;5015285;28;20030;-76
2021/07/09 05:32:33;;;;;;;14.18;9.68;;;;;;;22.04;50.38;102286.38;5000459;28;20057;-78
2021/07/09 05:34:59;;;;;;;13.98;9.35;;;;;;;21.99;50.54;102288.13;5018781;28;20033;-79
2021/07/09 05:37:29;;;;;;;14.77;9.15;;;;;;;21.94;50.48;102292.53;5005828;28;20364;-78
2021/07/09 05:39:55;;;;;;;13.00;8.38;;;;;;;21.97;50.75;102287.25;5023004;28;20026;-81
2021/07/09 05:42:20;;;;;;;13.68;8.13;;;;;;;22.47;49.39;102293.13;5038664;28;20383;-85
2021/07/09 05:44:45;;;;;;;11.73;7.53;;;;;;;22.75;48.42;102285.91;5003274;28;20041;-85
2021/07/09 05:47:12;;;;;;;12.55;7.90;;;;;;;23.25;47.20;102291.59;5002631;28;20031;-84
2021/07/09 05:49:38;;;;;;;12.88;8.70;;;;;;;25.32;42.13;102283.34;5002426;28;20128;-81
2021/07/09 05:52:04;;;;;;;11.00;8.38;;;;;;;25.56;41.42;102283.78;5018674;28;20113;-80
2021/07/09 05:54:29;;;;;;;12.60;8.48;;;;;;;25.91;40.50;102288.31;5018550;28;20029;-79
2021/07/09 05:56:55;;;;;;;10.98;8.18;;;;;;;25.58;41.22;102290.75;5018556;28;20091;-81
2021/07/09 05:59:20;;;;;;;11.40;7.72;;;;;;;25.04;42.54;102282.97;5018606;28;20021;-80
2021/07/09 06:01:46;;;;;;;10.80;7.57;;;;;;;26.04;40.45;102275.75;5018563;28;20392;-80
2021/07/09 06:04:14;;;;;;;10.20;7.55;;;;;;;26.07;40.30;102275.69;5002165;28;20060;-81
2021/07/09 06:06:40;;;;;;;10.68;7.43;;;;;;;26.34;39.54;102279.44;5019410;28;20030;-81
2021/07/09 06:09:08;;;;;;;9.98;6.68;;;;;;;25.22;42.42;102287.09;5002168;28;20412;-80
2021/07/09 06:11:33;;;;;;;8.18;6.38;;;;;;;25.50;41.50;102281.25;5018435;28;20112;-81
2021/07/09 06:13:59;;;;;;;9.75;6.80;;;;;;;26.83;38.92;102274.75;5018544;28;20116;-79
2021/07/09 06:16:24;;;;;;;10.48;6.38;;;;;;;27.98;35.92;102266.25;5001380;28;20053;-80
2021/07/09 06:18:53;;;;;;;11.48;6.57;;;;;;;27.20;37.17;102273.78;5018188;28;20110;-78
2021/07/09 06:21:18;;;;;;;9.55;5.97;;;;;;;25.96;40.38;102262.75;5001723;28;20180;-78
2021/07/09 06:23:44;;;;;;;10.55;5.97;;;;;;;25.28;42.26;102268.50;5017734;28;20021;-79
2021/07/09 06:26:10;;;;;;;10.40;6.43;;;;;;;23.73;46.29;102270.91;5018119;28;20029;-77
2021/07/09 06:28:35;;;;;;;10.48;6.60;;;;;;;23.62;46.50;102285.03;5017646;28;20034;-79
2021/07/09 06:31:01;;;;;;;12.90;7.30;;;;;;;23.24;47.46;102282.88;5035322;28;20089;-79
2021/07/09 06:33:26;;;;;;;11.45;6.53;;;;;;;23.27;47.29;102282.81;5039090;28;20047;-77
2021/07/09 06:35:52;;;;;;;11.70;7.05;;;;;;;22.67;48.73;102270.25;5001522;28;20035;-80
2021/07/09 06:38:18;;;;;;;11.18;6.47;;;;;;;22.61;48.64;102272.03;5017770;28;20037;-79
2021/07/09 06:40:43;;;;;;;8.70;6.22;;;;;;;22.50;48.90;102273.00;5001294;28;20059;-79
2021/07/09 06:43:11;;;;;;;9.27;6.05;;;;;;;22.55;49.13;102271.19;5017422;28;20030;-80
2021/07/09 06:45:37;;;;;;;9.82;6.30;;;;;;;22.85;48.50;102274.44;5016668;28;20064;-80
2021/07/09 06:48:03;;;;;;;9.57;6.15;;;;;;;23.26;47.55;102270.59;5017106;28;20037;-79
2021/07/09 06:50:28;;;;;;;12.15;6.25;;;;;;;23.24;47.32;102274.13;5017392;28;20029;-79
2021/07/09 06:52:56;;;;;;;10.65;6.50;;;;;;;23.21;46.92;102272.38;5001230;28;20116;-80
2021/07/09 06:55:22;;;;;;;11.30;6.43;;;;;;;22.96;47.94;102263.84;5001089;28;20025;-79
2021/07/09 06:57:47;;;;;;;10.38;6.07;;;;;;;23.03;47.98;102265.56;5000769;28;20083;-79
2021/07/09 07:00:15;;;;;;;12.40;6.88;;;;;;;23.18;47.38;102267.16;5001037;28;20025;-79
2021/07/09 07:02:40;;;;;;;9.65;6.13;;;;;;;23.34;46.98;102273.09;5017152;28;20036;-85
2021/07/09 07:05:06;;;;;;;9.23;6.32;;;;;;;23.49;46.73;102267.69;5017270;28;20029;-79
2021/07/09 07:07:32;;;;;;;9.95;6.35;;;;;;;23.56;46.88;102269.38;5000509;28;20033;-85
2021/07/09 07:10:00;;;;;;;11.25;6.90;;;;;;;23.61;46.55;102277.19;4985110;28;20026;-85
2021/07/09 07:12:26;;;;;;;10.68;6.13;;;;;;;23.62;46.52;102273.66;5000783;28;20203;-80
2021/07/09 07:14:53;;;;;;;10.30;6.32;;;;;;;23.28;47.18;102278.44;5034874;28;20411;-85
2021/07/09 07:17:18;;;;;;;11.00;6.43;;;;;;;23.41;46.80;102274.81;5034534;28;20049;-85
2021/07/09 07:19:44;;;;;;;7.75;6.05;;;;;;;23.47;46.89;102282.59;5000696;28;20386;-85
2021/07/09 07:22:09;;;;;;;9.50;6.47;;;;;;;23.56;46.90;102274.63;5000578;28;20080;-85
2021/07/09 07:24:35;;;;;;;13.40;6.40;;;;;;;23.66;46.55;102285.03;4985969;28;20100;-84
2021/07/09 07:27:00;;;;;;;9.88;6.43;;;;;;;23.16;47.45;102289.94;5017341;28;20037;-84
2021/07/09 07:29:26;;;;;;;10.13;6.28;;;;;;;23.12;48.00;102290.84;5000730;28;20037;-85
2021/07/09 07:31:52;;;;;;;12.48;6.25;;;;;;;23.51;46.87;102293.94;5005629;28;20025;-85
2021/07/09 07:34:17;;;;;;;9.40;6.55;;;;;;;23.61;46.52;102279.81;5000851;28;20048;-85
2021/07/09 07:36:42;;;;;;;8.93;6.28;;;;;;;23.65;46.37;102284.16;5000804;28;20029;-85
2021/07/09 07:39:08;;;;;;;9.20;5.57;;;;;;;23.64;46.19;102282.41;5000825;28;20029;-85
2021/07/09 07:41:33;;;;;;;7.55;6.05;;;;;;;23.73;46.35;102289.31;4984523;28;20075;-85
2021/07/09 07:44:00;;;;;;;8.15;5.82;;;;;;;23.62;46.15;102290.28;4984174;28;20090;-85
2021/07/09 07:46:27;;;;;;;10.43;6.25;;;;;;;23.60;46.26;102284.22;5000640;28;20120;-85
2021/07/09 07:48:53;;;;;;;9.45;6.10;;;;;;;23.58;46.37;102282.47;4984518;28;20056;-85
2021/07/09 07:51:18;;;;;;;10.48;6.20;;;;;;;23.43;46.93;102299.31;5016238;28;20025;-85
2021/07/09 07:53:44;;;;;;;8.02;6.03;;;;;;;23.24;47.18;102295.13;5000063;28;20116;-84
2021/07/09 07:56:09;;;;;;;8.05;6.00;;;;;;;23.36;46.60;102293.22;4999908;28;20045;-85
2021/07/09 07:58:36;;;;;;;8.13;5.90;;;;;;;23.52;46.09;102290.44;4983527;28;20033;-85
2021/07/09 08:01:03;;;;;;;10.75;6.10;;;;;;;23.57;46.35;102296.50;5016472;28;20068;-85
2021/07/09 08:03:28;;;;;;;8.32;6.03;;;;;;;23.59;46.32;102289.47;5016419;28;20033;-84
2021/07/09 08:05:53;;;;;;;11.57;6.15;;;;;;;23.65;46.04;102297.28;5033943;28;20493;-84
2021/07/09 08:08:19;;;;;;;7.90;5.68;;;;;;;23.57;46.24;102291.25;4983389;28;20037;-84
2021/07/09 08:10:44;;;;;;;6.25;5.13;;;;;;;23.66;46.29;102293.75;4999780;28;20373;-84
2021/07/09 08:13:10;;;;;;;7.47;5.57;;;;;;;23.66;46.54;102296.38;4999988;28;20112;-85
2021/07/09 08:15:35;;;;;;;7.72;5.93;;;;;;;23.52;46.17;102288.69;5015722;28;20049;-84
2021/07/09 08:18:01;;;;;;;11.55;6.25;;;;;;;23.34;46.25;102299.38;4983496;28;20116;-84
2021/07/09 08:20:28;;;;;;;9.88;5.70;;;;;;;23.36;46.61;102287.97;4999536;28;20368;-84
2021/07/09 08:22:53;;;;;;;10.73;6.03;;;;;;;23.26;46.62;102296.00;4983821;28;20566;-84
2021/07/09 08:25:19;;;;;;;8.20;5.88;;;;;;;22.96;46.61;102297.97;4983115;28;20061;-84
2021/07/09 08:27:44;;;;;;;7.65;5.60;;;;;;;23.02;46.81;102286.56;5033275;28;20025;-84
2021/07/09 08:30:10;;;;;;;7.97;5.93;;;;;;;23.08;46.44;102286.50;4983123;28;20033;-83
2021/07/09 08:32:40;;;;;;;9.68;6.13;;;;;;;23.08;46.65;102292.66;5015587;28;20025;-84
2021/07/09 08:35:08;;;;;;;8.55;5.82;;;;;;;22.94;46.66;102284.00;5000444;28;20025;-84
2021/07/09 08:37:33;;;;;;;7.97;4.97;;;;;;;23.11;46.68;102282.13;5033368;28;20385;-84
2021/07/09 08:39:59;;;;;;;8.32;5.53;;;;;;;23.24;46.25;102282.00;5015630;28;20546;-83
2021/07/09 08:42:24;;;;;;;9.13;6.18;;;;;;;23.08;46.79;102283.88;4999207;28;20022;-85
2021/07/09 08:44:50;;;;;;;8.07;5.82;;;;;;;23.19;46.14;102282.03;4999391;28;20391;-84
2021/07/09 08:47:15;;;;;;;7.03;5.25;;;;;;;23.28;46.00;102279.31;5015589;28;20026;-84
2021/07/09 08:49:41;;;;;;;10.82;6.00;;;;;;;23.20;46.13;102281.16;4999331;28;20119;-84
2021/07/09 08:52:07;;;;;;;8.32;5.75;;;;;;;23.15;46.12;102277.72;4999475;28;20033;-84
2021/07/09 08:54:33;;;;;;;7.30;5.50;;;;;;;23.08;46.79;102278.63;4999262;28;20017;-84
2021/07/09 08:56:59;;;;;;;9.73;6.70;;;;;;;22.97;47.17;102281.31;5015569;28;20032;-84
2021/07/09 08:59:24;;;;;;;10.35;6.65;;;;;;;22.85;47.28;102277.06;5015353;28;20116;-84
2021/07/09 09:01:56;;;;;;;9.75;6.35;;;;;;;22.74;47.52;102277.16;5015632;28;20471;-85
2021/07/09 09:04:28;;;;;;;7.82;6.28;;;;;;;22.84;47.47;102277.09;5016092;28;20109;-84
2021/07/09 09:07:00;;;;;;;8.07;6.30;;;;;;;22.99;47.32;102275.22;5018671;28;20022;-84
2021/07/09 09:09:26;;;;;;;8.98;6.28;;;;;;;22.95;47.51;102283.09;5019912;28;20063;-84
2021/07/09 09:12:17;;;;;;;9.68;6.60;;;;;;;22.71;47.81;102273.69;5006560;28;20037;-84
2021/07/09 09:14:47;;;;;;;10.63;6.85;;;;;;;22.80;47.89;102277.13;5039490;28;20037;-85
2021/07/09 09:17:28;;;;;;;10.65;6.90;;;;;;;22.72;47.67;102275.44;5019611;28;20132;-84
2021/07/09 09:20:12;;;;;;;10.65;6.55;;;;;;;22.70;48.12;102274.59;5038534;28;20072;-85
2021/07/09 09:22:55;;;;;;;11.52;7.28;;;;;;;22.64;48.45;102282.50;5019644;28;20034;-84
2021/07/09 09:25:23;;;;;;;10.80;6.88;;;;;;;22.74;48.44;102269.28;5019023;28;20111;-83
2021/07/09 09:28:10;;;;;;;10.10;7.07;;;;;;;22.71;48.10;102277.22;5019026;28;20493;-83
2021/07/09 09:30:37;;;;;;;11.65;6.97;;;;;;;22.58;48.76;102279.06;5019000;28;20117;-84
2021/07/09 09:33:10;;;;;;;8.70;6.93;;;;;;;22.55;48.89;102283.44;5019107;28;20036;-84
2021/07/09 09:35:42;;;;;;;;;;;;;;;22.64;48.72;102285.13;5036006;28;20090;-84
2021/07/09 09:38:12;;;;;;;12.55;7.65;;;;;;;22.61;48.88;102283.41;5018381;28;19928;-84
2021/07/09 09:40:40;;;;;;;11.82;7.82;;;;;;;22.57;48.95;102284.31;5002868;28;20030;-84
2021/07/09 09:43:11;;;;;;;11.20;7.53;;;;;;;22.53;49.12;102278.19;5002602;28;20503;-84
2021/07/09 09:45:38;;;;;;;10.85;7.47;;;;;;;22.66;49.13;102275.50;5018615;28;20029;-83
2021/07/09 09:48:06;;;;;;;11.57;7.63;;;;;;;22.69;48.98;102278.06;5002080;28;20037;-85
2021/07/09 09:50:40;;;;;;;10.45;7.72;;;;;;;22.54;49.10;102281.72;5018558;28;20379;-84
2021/07/09 09:53:06;;;;;;;10.80;7.50;;;;;;;22.45;49.58;102281.75;5018516;28;20025;-88
2021/07/09 09:55:32;;;;;;;11.50;7.70;;;;;;;22.68;48.97;102279.84;5002517;28;20040;-78
2021/07/09 09:58:12;;;;;;;12.45;7.88;;;;;;;22.66;49.25;102283.38;5019513;28;20036;-87
2021/07/09 10:00:40;;;;;;;11.48;7.55;;;;;;;22.69;49.06;102283.31;5018238;28;20108;-86
2021/07/09 10:03:06;;;;;;;10.43;7.45;;;;;;;22.67;49.39;102283.34;5018214;28;20032;-86
2021/07/09 10:05:40;;;;;;;13.50;7.57;;;;;;;22.80;48.97;102286.75;5002058;28;20044;-87
2021/07/09 10:08:10;;;;;;;12.10;7.72;;;;;;;22.59;49.29;102291.28;5018529;28;20029;-86
2021/07/09 10:10:36;;;;;;;10.02;7.50;;;;;;;22.54;49.63;102292.22;5036146;28;20029;-87
2021/07/09 10:13:02;;;;;;;11.05;7.00;;;;;;;22.54;49.66;102289.59;5036009;28;20046;-85
2021/07/09 10:15:32;;;;;;;11.57;7.82;;;;;;;22.41;49.65;102294.03;5001755;28;20029;-85
2021/07/09 10:17:58;;;;;;;11.70;8.15;;;;;;;22.34;50.20;102294.94;5018034;28;20053;-86
2021/07/09 10:20:24;;;;;;;14.35;7.93;;;;;;;22.35;49.96;102286.22;5017286;28;20025;-86
2021/07/09 10:22:51;;;;;;;13.35;7.82;;;;;;;22.28;50.20;102282.75;4985764;28;20026;-86
2021/07/09 10:25:23;;;;;;;13.77;8.18;;;;;;;22.28;50.15;102284.53;5002163;28;20525;-88
2021/07/09 10:27:49;;;;;;;11.82;7.57;;;;;;;22.29;50.08;102281.88;5003355;28;20030;-86
2021/07/09 10:30:15;;;;;;;13.00;7.85;;;;;;;22.27;50.42;102286.25;5002596;28;20129;-88
2021/07/09 10:32:48;;;;;;;10.38;7.72;;;;;;;22.30;50.28;102283.63;5018757;28;20383;-88
2021/07/09 10:35:37;;;;;;;10.10;7.70;;;;;;;22.31;50.18;102277.47;5018702;28;20025;-85
2021/07/09 10:38:12;;;;;;;12.75;7.75;;;;;;;22.40;49.99;102276.53;5018381;28;20037;-88
2021/07/09 10:40:38;;;;;;;9.18;7.60;;;;;;;22.35;49.93;102276.59;5018400;28;20483;-87
2021/07/09 10:43:05;;;;;;;13.90;7.72;;;;;;;22.29;49.97;102274.00;5017514;28;20025;-88
2021/07/09 10:45:31;;;;;;;14.32;8.57;;;;;;;22.29;50.10;102278.38;5017575;28;20033;-88
2021/07/09 10:48:02;;;;;;;13.27;7.78;;;;;;;22.25;50.18;102274.03;5001344;28;20029;-87
2021/07/09 10:50:36;;;;;;;13.48;8.00;;;;;;;22.17;49.99;102271.44;5017530;28;20025;-88
2021/07/09 10:53:02;;;;;;;11.13;7.90;;;;;;;22.10;50.33;102272.34;5017876;28;20025;-88
2021/07/09 10:55:28;;;;;;;11.25;7.82;;;;;;;22.20;50.23;102276.66;5017366;28;20029;-89
2021/07/09 10:58:17;;;;;;;11.48;7.97;;;;;;;22.29;50.14;102273.13;5017210;28;20036;-88
2021/07/09 11:01:02;;;;;;;11.57;8.02;;;;;;;22.25;50.05;102271.41;5017319;28;20033;-88
2021/07/09 11:03:31;;;;;;;10.75;7.95;;;;;;;22.31;49.54;102274.00;5017012;28;20079;-89
2021/07/09 11:06:04;;;;;;;13.63;7.90;;;;;;;22.21;50.04;102278.41;5017076;28;20391;-88
2021/07/09 11:08:30;;;;;;;10.18;7.97;;;;;;;22.13;50.02;102277.56;5017290;28;20037;-88
2021/07/09 11:10:56;;;;;;;9.88;7.70;;;;;;;22.16;49.72;102277.53;5034780;28;20071;-89
2021/07/09 11:13:40;;;;;;;12.23;7.78;;;;;;;22.22;49.69;102272.31;5000668;28;20440;-88
2021/07/09 11:16:24;;;;;;;9.82;7.68;;;;;;;22.28;49.61;102279.28;5016818;28;20049;-86
2021/07/09 11:19:04;;;;;;;12.20;7.15;;;;;;;22.17;49.87;102274.94;5034910;28;20022;-87
2021/07/09 11:21:29;;;;;;;11.35;7.30;;;;;;;22.19;49.81;102270.53;5016568;28;20121;-87